Hovedside
METAR-TAF:

METAR-TAF

Lufthavner :

Lüderitz, Namibia

breddegrad: 26-41S, lengdegrad: 015-15E, høyde over havet: 130 m

Gjeldene værobservasjon

Denne rapporten ble laget for 1 time og 18 minutter siden, klokken 02:00 UTC
Temperatur 10°C
Luftfuktighet 82%
Trykk 1021 hPa

METAR: FYLZ 150200Z AUTO /////KT //// // ////// 10/07 Q1021

Tid: 05:18 (03:18 UTC)

Varsel

Denne rapporten ble laget for 10 timer og 18 minutter siden, klokken 17:00 UTC
Varsel gyldig fra 14. klokken 18 UTC til 15. klokken 03 UTC
Vind 12 kt fra Sør
Sikt 10 km eller mer
ingen skyer under 1500 m og ingen bygeskyer
Blir
fra 14. klokken 20 UTC til 14. klokken 22 UTC
Sikt 10 km eller mer
Brutte skyer i en høyde av 2000 ft

TAF: FYLZ 141700Z 1418/1503 17012KT CAVOK BECMG 1420/1422 9999 BKN020

Værobservasjoner og værvarsel for over 4000 flyplasser (METAR- og TAF-rapporter).

Tilgjengelige stasjoner er representert av de røde og gule prikkene på kartet.

Hold musepekeren over prikken for å se navnet på stasjonen.

Klikk så for å se værobservasjoner og -varsler.

For å forandre kartet kan du klikke på den grønne knappen med svart kryss for å zoome inn, på den grønne knappen med strek for å zoome ut, eller på de grønne pilene for å se tilstøtende kart.


METAR-TAF: